Wednesday, November 14, 2018, 12:45 AM CST
Back to Local

KARR, Chicago Aurora Municipal

Location: Sugar Grove, IL, United States Lat: 41.767
Local Time: 12:45 AM CST ( 6:45 GMT) Lon: -88.467
Time Zone: US/Central Elev: 711 ft

Show me the last for .
Show Decoded

2018-11-13 23:52 METAR KARR 140552Z AUTO 26005KT 9SM CLR M09/M12 A3051 RMK AO2 SLP345 T10891122
                 11061 21094 410221094 51012 TSNO =
2018-11-13 22:52 METAR KARR 140452Z AUTO 28005KT 9SM CLR M08/M12 A3050 RMK AO2 SLP340 T10831117
                 TSNO =
2018-11-13 21:52 METAR KARR 140352Z AUTO 24005KT 7SM CLR M08/M11 A3050 RMK AO2 SLP340 T10781111
                 TSNO =
2018-11-13 20:52 METAR KARR 140252Z 24004KT 9SM CLR M07/M11 A3048 RMK AO2 SLP333 T10721111 53013
                 =
2018-11-13 19:52 METAR KARR 140152Z 26003KT 10SM CLR M07/M10 A3046 RMK AO2 SLP328 T10721100 =
2018-11-13 18:52 METAR KARR 140052Z 25005KT 10SM CLR M07/M11 A3045 RMK AO2 SLP324 T10721106 =
2018-11-13 17:52 METAR KARR 132352Z 29004KT 10SM CLR M06/M10 A3044 RMK AO2 SLP320 T10611100 11022
                 21061 51008 =
2018-11-13 16:52 METAR KARR 132252Z 29007KT 10SM CLR M04/M11 A3043 RMK AO2 SLP318 T10441106 =
2018-11-13 15:52 METAR KARR 132152Z 28009KT 10SM CLR M03/M11 A3043 RMK AO2 SLP315 T10281111 =
2018-11-13 14:52 METAR KARR 132052Z 30013G17KT 10SM CLR M02/M11 A3041 RMK AO2 SLP310 T10221111
                 56009 =
2018-11-13 13:52 METAR KARR 131952Z 31011KT 10SM CLR M02/M11 A3041 RMK AO2 SLP309 T10221111 =
2018-11-13 12:52 METAR KARR 131852Z 30010G15KT 10SM CLR M03/M11 A3043 RMK AO2 SLP313 T10281111 =
2018-11-13 11:52 METAR KARR 131752Z 31009G15KT 10SM FEW032 M04/M12 A3044 RMK AO2 SLP319 T10391117
                 11033 21089 50006 =
2018-11-13 10:52 METAR KARR 131652Z 31009G20KT 10SM FEW030 M04/M12 A3045 RMK AO2 SLP321 T10441122
                 =
2018-11-13 09:52 METAR KARR 131552Z 32009KT 10SM FEW030 M05/M12 A3044 RMK AO2 SLP319 T10501122 =
2018-11-13 08:52 METAR KARR 131452Z 32011KT 10SM CLR M06/M13 A3042 RMK AO2 SLP313 T10611128 51012
                 =
2018-11-13 07:52 METAR KARR 131352Z 31012KT 10SM CLR M07/M12 A3041 RMK AO2 SLP310 T10721122 =
2018-11-13 06:52 METAR KARR 131252Z 29006KT 10SM CLR M09/M12 A3040 RMK AO2 SLP306 T10891122 =
2018-11-13 05:52 METAR KARR 131152Z AUTO 31007KT 10SM CLR M08/M12 A3039 RMK AO2 SLP301 T10831122
                 11039 21083 53009 TSNO =
2018-11-13 04:52 METAR KARR 131052Z AUTO 32010KT 10SM CLR M08/M12 A3037 RMK AO2 SLP297 T10781122
                 TSNO =
2018-11-13 04:07 METAR KARR 131007Z AUTO 32013KT 10SM SCT028 M07/M13 A3037 RMK AO2 T10721128 TSNO
                 =
2018-11-13 03:52 METAR KARR 130952Z AUTO 33013KT 10SM BKN028 M07/M12 A3037 RMK AO2 SLP293
                 T10671122 TSNO =
2018-11-13 02:52 METAR KARR 130852Z AUTO 31015G21KT 10SM OVC029 M06/M12 A3036 RMK AO2 SLP291
                 T10561117 53002 TSNO =
2018-11-13 02:06 METAR KARR 130806Z AUTO 34012G20KT 10SM OVC029 M05/M11 A3036 RMK AO2 T10501111
                 TSNO =
2018-11-13 01:52 METAR KARR 130752Z AUTO 32014KT 10SM OVC030 M05/M11 A3036 RMK AO2 SLP291
                 T10501111 TSNO =
2018-11-13 00:52 METAR KARR 130652Z AUTO 34015KT 10SM OVC029 M04/M10 A3035 RMK AO2 SLP286
                 T10391100 TSNO =
2018-11-13 00:50 METAR KARR 130650Z AUTO 34015KT 10SM OVC029 M04/M10 A3035 RMK AO2 TSNO =

Support USWX by starting your Amazon purchase here.